Danville, Alabama
Current Conditions -  °F | °C
As of 9:35 PM on Friday 28 Nov 2014 (Local Time) from KCMD Reporting Station
Clear Clear  
Wind Chill: 34°   Ceiling: Unl
Heat Index: 39°   Visibility: 10mi
Dew Point: 21°   Wind: 8mph
Humidity: 49%   Direction: 150°SSE
Pressure: 30.23"   Gusts: NA
Location:  34.41°N, 87.08°W
Report Text: KCMD 290335Z AUTO 15007KT 10SM CLR 04/M06 A3023 RMK AO2 T00411059
Loading
Personal Weather Stations






























Interactive Weather Map New forecast layout! Learn more

10-Day Weather Forecast

Advertisements
Track Severe Weather on mobile